createdAt,value
2018-06-11T00:02:24.286Z,19.80
2018-06-11T00:04:53.321Z,19.80
2018-06-11T00:07:22.278Z,19.80
2018-06-11T00:09:51.270Z,19.70
2018-06-11T00:12:20.290Z,19.70
2018-06-11T00:14:49.266Z,19.70
2018-06-11T00:17:18.226Z,19.60
2018-06-11T00:22:16.455Z,19.60
2018-06-11T00:24:45.478Z,19.60
2018-06-11T00:27:14.478Z,19.60
2018-06-11T00:29:43.467Z,19.60
2018-06-11T00:32:12.458Z,19.60
2018-06-11T00:34:41.483Z,19.50
2018-06-11T00:37:10.523Z,19.60
2018-06-11T00:39:39.506Z,19.50
2018-06-11T00:42:08.519Z,19.50
2018-06-11T00:44:37.578Z,19.50
2018-06-11T00:47:06.611Z,19.50
2018-06-11T00:49:35.583Z,19.50
2018-06-11T00:52:04.582Z,19.50
2018-06-11T00:54:33.719Z,19.30
2018-06-11T00:57:02.763Z,19.30
2018-06-11T00:59:31.766Z,19.30
2018-06-11T01:02:00.815Z,19.30
2018-06-11T01:04:29.792Z,19.30
2018-06-11T01:06:58.800Z,19.30
2018-06-11T01:09:27.799Z,19.30
2018-06-11T01:11:56.910Z,19.30
2018-06-11T01:14:25.886Z,19.20
2018-06-11T01:16:54.869Z,19.20
2018-06-11T01:19:23.854Z,19.20
2018-06-11T01:21:52.883Z,19.20
2018-06-11T01:24:21.911Z,19.20
2018-06-11T01:26:50.902Z,19.20
2018-06-11T01:29:20.011Z,19.20
2018-06-11T01:31:49.040Z,19.20
2018-06-11T01:34:18.198Z,19.30
2018-06-11T01:36:47.194Z,19.20
2018-06-11T01:39:16.178Z,19.10
2018-06-11T01:41:45.198Z,19.00
2018-06-11T01:44:14.198Z,19.10
2018-06-11T01:46:43.199Z,19.10
2018-06-11T01:49:12.202Z,19.10
2018-06-11T01:51:41.198Z,19.20
2018-06-11T01:54:10.190Z,19.20
2018-06-11T01:56:39.218Z,19.00
2018-06-11T01:59:08.174Z,18.90
2018-06-11T02:01:37.194Z,18.70
2018-06-11T02:04:06.162Z,18.80
2018-06-11T02:06:35.235Z,18.90
2018-06-11T02:09:05.498Z,19.00
2018-06-11T02:11:34.626Z,19.00
2018-06-11T02:14:03.854Z,19.00
2018-06-11T02:16:32.848Z,19.00
2018-06-11T02:19:01.884Z,19.00
2018-06-11T02:21:30.961Z,19.10
2018-06-11T02:23:59.939Z,19.10
2018-06-11T02:26:28.945Z,19.10
2018-06-11T02:28:57.950Z,19.10
2018-06-11T02:31:26.989Z,19.20
2018-06-11T02:33:55.966Z,19.10
2018-06-11T02:36:24.960Z,19.10
2018-06-11T02:38:54.090Z,19.10
2018-06-11T02:41:23.059Z,19.20
2018-06-11T02:43:52.035Z,19.10
2018-06-11T02:46:20.992Z,19.10
2018-06-11T02:48:49.967Z,19.10
2018-06-11T02:51:18.941Z,18.80
2018-06-11T02:53:48.166Z,18.80
2018-06-11T02:56:17.138Z,18.90
2018-06-11T02:58:46.230Z,18.90
2018-06-11T03:01:15.220Z,18.90
2018-06-11T03:03:44.231Z,18.80
2018-06-11T03:06:13.207Z,18.80
2018-06-11T03:08:42.352Z,18.80
2018-06-11T03:11:11.311Z,18.90
2018-06-11T03:13:40.288Z,18.90
2018-06-11T03:16:09.299Z,18.90
2018-06-11T03:18:38.304Z,18.80
2018-06-11T03:21:07.299Z,18.70
2018-06-11T03:23:36.287Z,18.70
2018-06-11T03:26:05.303Z,18.80
2018-06-11T03:28:34.355Z,18.70
2018-06-11T03:31:03.339Z,18.70
2018-06-11T03:33:32.356Z,18.60
2018-06-11T03:36:01.329Z,18.50
2018-06-11T03:38:30.346Z,18.60
2018-06-11T03:40:59.327Z,18.40
2018-06-11T03:43:28.319Z,18.60
2018-06-11T03:45:57.330Z,18.70
2018-06-11T03:48:26.325Z,18.80
2018-06-11T03:50:55.316Z,18.80
2018-06-11T03:53:24.283Z,18.80
2018-06-11T03:55:53.267Z,18.80
2018-06-11T03:58:22.318Z,18.60
2018-06-11T04:00:51.373Z,18.60
2018-06-11T04:03:20.398Z,18.60
2018-06-11T04:05:49.359Z,18.70
2018-06-11T04:08:18.387Z,18.80
2018-06-11T04:10:47.508Z,18.80
2018-06-11T04:13:16.439Z,18.80
2018-06-11T04:15:45.564Z,18.90
2018-06-11T04:18:14.645Z,19.00
2018-06-11T04:20:43.623Z,19.00
2018-06-11T04:23:12.710Z,18.90
2018-06-11T04:25:42.171Z,18.90
2018-06-11T04:28:11.195Z,19.10
2018-06-11T04:30:40.239Z,19.20
2018-06-11T04:33:09.234Z,19.30
2018-06-11T04:35:38.251Z,19.40
2018-06-11T04:38:07.287Z,19.30
2018-06-11T04:40:36.481Z,19.40
2018-06-11T04:43:05.463Z,19.40
2018-06-11T04:45:34.488Z,19.30
2018-06-11T04:48:03.559Z,19.30
2018-06-11T04:50:32.562Z,19.30
2018-06-11T04:53:01.602Z,19.20
2018-06-11T04:55:30.584Z,19.20
2018-06-11T04:57:59.865Z,19.30
2018-06-11T05:00:28.930Z,19.20
2018-06-11T05:02:57.919Z,19.30
2018-06-11T05:05:26.987Z,19.40
2018-06-11T05:07:55.978Z,19.40
2018-06-11T05:10:24.962Z,19.30
2018-06-11T05:12:53.926Z,19.40
2018-06-11T05:15:23.103Z,19.40
2018-06-11T05:17:52.093Z,19.50
2018-06-11T05:20:21.073Z,19.60
2018-06-11T05:22:51.052Z,19.60
2018-06-11T05:25:20.089Z,19.70
2018-06-11T05:27:49.132Z,19.80
2018-06-11T05:30:18.106Z,19.90
2018-06-11T05:32:47.090Z,20.00
2018-06-11T05:35:16.139Z,20.10
2018-06-11T05:37:45.166Z,20.20
2018-06-11T05:40:14.243Z,20.20
2018-06-11T05:42:43.163Z,20.10
2018-06-11T05:45:12.140Z,20.20
2018-06-11T05:47:41.271Z,20.20
2018-06-11T05:50:10.268Z,20.20
2018-06-11T05:52:39.271Z,20.40
2018-06-11T05:55:08.250Z,20.30
2018-06-11T05:57:37.230Z,20.20
2018-06-11T06:00:06.229Z,20.30
2018-06-11T06:02:35.243Z,20.40
2018-06-11T06:05:04.324Z,20.50
2018-06-11T06:07:33.303Z,20.40
2018-06-11T06:10:02.363Z,20.50
2018-06-11T06:12:31.361Z,20.70
2018-06-11T06:15:00.398Z,20.90
2018-06-11T06:17:29.378Z,20.80
2018-06-11T06:19:58.370Z,21.00
2018-06-11T06:22:27.443Z,21.10
2018-06-11T06:24:56.458Z,21.00
2018-06-11T06:27:25.484Z,21.30
2018-06-11T06:29:54.459Z,21.60
2018-06-11T06:32:23.434Z,22.20
2018-06-11T06:34:52.461Z,22.60
2018-06-11T06:37:21.402Z,23.20
2018-06-11T06:39:50.488Z,23.40
2018-06-11T06:42:19.454Z,23.60
2018-06-11T06:44:48.419Z,24.40
2018-06-11T06:47:17.565Z,24.40
2018-06-11T06:49:46.762Z,25.10
2018-06-11T06:52:15.783Z,25.10
2018-06-11T06:54:44.755Z,24.40
2018-06-11T06:57:13.770Z,24.20
2018-06-11T06:59:42.874Z,24.60
2018-06-11T07:02:11.889Z,24.90
2018-06-11T07:04:40.972Z,25.80
2018-06-11T07:07:09.979Z,26.50
2018-06-11T07:09:39.093Z,27.10
2018-06-11T07:12:08.047Z,27.60
2018-06-11T07:14:37.127Z,27.40
2018-06-11T07:17:06.110Z,26.20
2018-06-11T07:19:35.115Z,27.90
2018-06-11T07:22:04.148Z,28.10
2018-06-11T07:24:33.159Z,27.20
2018-06-11T07:27:02.149Z,27.70
2018-06-11T07:29:31.107Z,27.50
2018-06-11T07:32:00.210Z,29.10
2018-06-11T07:34:29.186Z,29.70
2018-06-11T07:36:58.285Z,26.60
2018-06-11T07:39:27.243Z,28.10
2018-06-11T07:41:56.266Z,28.70
2018-06-11T07:44:25.283Z,29.80
2018-06-11T07:46:54.326Z,28.70
2018-06-11T07:49:23.307Z,28.90
2018-06-11T07:51:52.407Z,30.40
2018-06-11T07:54:21.515Z,30.90
2018-06-11T07:56:50.539Z,31.00
2018-06-11T07:59:19.514Z,30.30
2018-06-11T08:01:48.534Z,29.40
2018-06-11T08:04:17.498Z,27.80
2018-06-11T08:06:46.478Z,26.70
2018-06-11T08:09:15.490Z,26.80
2018-06-11T08:11:44.502Z,27.30
2018-06-11T08:14:13.492Z,26.50
2018-06-11T08:16:42.543Z,27.10
2018-06-11T08:19:11.555Z,27.90
2018-06-11T08:21:40.527Z,28.30
2018-06-11T08:24:09.551Z,28.80
2018-06-11T08:26:38.531Z,29.30
2018-06-11T08:29:07.496Z,30.60
2018-06-11T08:31:36.526Z,31.40
2018-06-11T08:34:05.523Z,28.50
2018-06-11T08:36:34.507Z,28.00
2018-06-11T08:39:03.915Z,29.20
2018-06-11T08:41:33.069Z,30.00
2018-06-11T08:44:02.022Z,30.30
2018-06-11T08:46:30.975Z,28.10
2018-06-11T08:49:00.014Z,28.80
2018-06-11T08:51:29.036Z,29.00
2018-06-11T08:53:58.015Z,29.90
2018-06-11T08:56:27.153Z,29.40
2018-06-11T08:58:56.153Z,30.30
2018-06-11T09:01:25.104Z,29.50
2018-06-11T09:03:54.102Z,30.00
2018-06-11T09:06:23.134Z,28.80
2018-06-11T09:08:52.098Z,29.40
2018-06-11T09:11:21.067Z,30.00
2018-06-11T09:13:50.115Z,30.60
2018-06-11T09:16:19.110Z,29.80
2018-06-11T09:18:48.098Z,29.60
2018-06-11T09:21:17.083Z,28.60
2018-06-11T09:23:46.094Z,29.00
2018-06-11T09:26:15.054Z,28.40
2018-06-11T09:28:44.058Z,28.50
2018-06-11T09:31:13.079Z,28.60
2018-06-11T09:33:42.100Z,28.30
2018-06-11T09:36:11.055Z,28.00
2018-06-11T09:38:40.033Z,28.10
2018-06-11T09:41:09.058Z,28.10
2018-06-11T09:43:38.043Z,27.70
2018-06-11T09:46:07.110Z,27.80
2018-06-11T09:48:36.115Z,27.80
2018-06-11T09:51:05.113Z,27.50
2018-06-11T09:53:34.098Z,27.50
2018-06-11T09:56:03.106Z,28.20
2018-06-11T09:58:32.090Z,28.10
2018-06-11T10:01:01.130Z,28.00
2018-06-11T10:03:30.153Z,28.10
2018-06-11T10:05:59.178Z,27.60
2018-06-11T10:08:28.151Z,27.50
2018-06-11T10:10:57.182Z,27.30
2018-06-11T10:13:26.147Z,27.10
2018-06-11T10:15:55.147Z,27.00
2018-06-11T10:18:24.134Z,27.00
2018-06-11T10:20:53.202Z,26.90
2018-06-11T10:23:28.558Z,26.70
2018-06-11T10:25:57.826Z,26.40
2018-06-11T10:28:26.771Z,26.60
2018-06-11T10:30:55.838Z,26.40
2018-06-11T10:33:24.874Z,26.20
2018-06-11T10:35:53.891Z,26.30
2018-06-11T10:38:22.910Z,26.20
2018-06-11T10:40:51.930Z,26.10
2018-06-11T10:43:21.009Z,26.10
2018-06-11T10:45:49.996Z,26.00
2018-06-11T10:48:19.097Z,25.90
2018-06-11T10:50:48.142Z,25.90
2018-06-11T10:53:17.176Z,25.80
2018-06-11T10:55:46.182Z,25.60
2018-06-11T10:58:15.173Z,25.50
2018-06-11T11:00:44.230Z,25.40
2018-06-11T11:03:13.270Z,25.30
2018-06-11T11:05:42.247Z,25.10
2018-06-11T11:08:11.375Z,24.90
2018-06-11T11:10:40.391Z,24.80
2018-06-11T11:13:09.409Z,24.60
2018-06-11T11:17:57.579Z,24.50
2018-06-11T11:20:26.606Z,24.10
2018-06-11T11:22:55.582Z,23.80
2018-06-11T11:25:24.594Z,23.70
2018-06-11T11:27:53.569Z,23.40
2018-06-11T11:30:22.734Z,23.30
2018-06-11T11:32:51.772Z,23.40
2018-06-11T11:35:20.750Z,23.30
2018-06-11T11:37:49.782Z,23.20
2018-06-11T11:40:18.740Z,23.10
2018-06-11T11:42:47.771Z,23.00
2018-06-11T11:45:16.829Z,23.00
2018-06-11T11:47:46.982Z,22.80
2018-06-11T11:50:15.982Z,22.90
2018-06-11T11:52:45.139Z,22.80
2018-06-11T11:55:14.245Z,22.60
2018-06-11T11:57:43.374Z,22.60
2018-06-11T12:00:12.359Z,22.60
2018-06-11T12:02:41.354Z,22.60
2018-06-11T12:05:10.335Z,22.90
2018-06-11T12:07:39.352Z,23.10
2018-06-11T12:10:08.450Z,23.00
2018-06-11T12:12:37.419Z,23.00
2018-06-11T12:15:06.399Z,22.80
2018-06-11T12:17:35.455Z,22.80
2018-06-11T12:20:04.483Z,23.20
2018-06-11T12:22:33.465Z,23.10
2018-06-11T12:25:02.681Z,22.80
2018-06-11T12:27:31.631Z,23.20
2018-06-11T12:30:00.610Z,23.30
2018-06-11T12:32:29.675Z,23.30
2018-06-11T12:34:58.666Z,23.30
2018-06-11T12:37:27.706Z,23.70
2018-06-11T12:39:56.697Z,23.20
2018-06-11T12:42:25.998Z,23.50
2018-06-11T12:44:55.009Z,23.50
2018-06-11T12:47:24.069Z,23.30
2018-06-11T12:49:53.095Z,23.50
2018-06-11T12:52:22.130Z,23.30
2018-06-11T12:54:51.091Z,23.40
2018-06-11T12:57:20.095Z,23.30
2018-06-11T12:59:49.182Z,23.10
2018-06-11T13:02:18.162Z,23.30
2018-06-11T13:04:47.252Z,23.30
2018-06-11T13:07:16.234Z,23.20
2018-06-11T13:09:45.207Z,23.30
2018-06-11T13:12:14.227Z,23.30
2018-06-11T13:14:43.195Z,23.40
2018-06-11T13:17:12.255Z,23.40
2018-06-11T13:19:41.219Z,23.40
2018-06-11T13:22:10.404Z,23.30
2018-06-11T13:24:39.374Z,23.30
2018-06-11T13:27:08.383Z,23.40
2018-06-11T13:29:37.424Z,23.30
2018-06-11T13:32:06.407Z,23.20
2018-06-11T13:34:35.375Z,23.20
2018-06-11T13:37:04.381Z,23.30
2018-06-11T13:39:33.346Z,23.20
2018-06-11T13:42:02.395Z,23.10
2018-06-11T13:44:31.358Z,23.10
2018-06-11T13:47:00.474Z,23.00
2018-06-11T13:49:29.447Z,23.00
2018-06-11T13:51:58.494Z,22.90
2018-06-11T13:54:27.507Z,22.90
2018-06-11T13:56:56.511Z,22.80
2018-06-11T13:59:25.806Z,22.80
2018-06-11T14:01:54.813Z,22.80
2018-06-11T14:04:23.815Z,22.70
2018-06-11T14:06:52.834Z,22.70
2018-06-11T14:09:21.928Z,22.60
2018-06-11T14:11:50.999Z,22.50
2018-06-11T14:14:20.041Z,22.30
2018-06-11T14:16:49.089Z,22.40
2018-06-11T14:19:18.115Z,22.30
2018-06-11T14:21:47.043Z,22.30
2018-06-11T14:24:16.115Z,22.30
2018-06-11T14:26:45.198Z,22.30
2018-06-11T14:29:14.240Z,22.40
2018-06-11T14:31:43.185Z,22.30
2018-06-11T14:34:12.134Z,22.30
2018-06-11T14:36:41.227Z,22.40
2018-06-11T14:39:10.330Z,22.30
2018-06-11T14:41:39.311Z,22.30
2018-06-11T14:44:08.299Z,22.30
2018-06-11T14:46:37.347Z,22.30
2018-06-11T14:49:06.303Z,22.40
2018-06-11T14:51:35.311Z,22.40
2018-06-11T14:54:04.334Z,22.50
2018-06-11T14:56:33.503Z,22.60
2018-06-11T14:59:02.474Z,22.40
2018-06-11T15:01:31.459Z,22.30
2018-06-11T15:04:00.794Z,22.40
2018-06-11T15:06:29.786Z,22.40
2018-06-11T15:08:58.751Z,22.40
2018-06-11T15:11:27.765Z,22.50
2018-06-11T15:13:56.779Z,22.50
2018-06-11T15:16:25.766Z,22.60
2018-06-11T15:19:01.123Z,22.60
2018-06-11T15:21:30.198Z,22.70
2018-06-11T15:23:59.158Z,22.60
2018-06-11T15:26:28.138Z,22.50
2018-06-11T15:28:57.170Z,22.60
2018-06-11T15:31:26.132Z,22.60
2018-06-11T15:33:55.123Z,22.70
2018-06-11T15:36:24.105Z,22.90
2018-06-11T15:38:53.078Z,23.00
2018-06-11T15:41:22.046Z,23.00
2018-06-11T15:43:51.077Z,23.10
2018-06-11T15:46:20.219Z,23.10
2018-06-11T15:48:49.223Z,23.00
2018-06-11T15:51:18.187Z,23.00
2018-06-11T15:53:47.161Z,23.10
2018-06-11T15:56:16.277Z,23.10
2018-06-11T15:58:45.219Z,23.00
2018-06-11T16:01:14.187Z,22.90
2018-06-11T16:03:43.231Z,22.80
2018-06-11T16:06:12.223Z,22.90
2018-06-11T16:08:41.377Z,22.90
2018-06-11T16:11:10.359Z,22.80
2018-06-11T16:13:39.330Z,22.80
2018-06-11T16:16:08.323Z,22.70
2018-06-11T16:18:37.404Z,22.70
2018-06-11T16:21:06.368Z,22.80
2018-06-11T16:23:35.319Z,22.70
2018-06-11T16:26:04.407Z,22.80
2018-06-11T16:28:33.494Z,22.80
2018-06-11T16:31:02.524Z,22.80
2018-06-11T16:33:31.462Z,22.80
2018-06-11T16:36:00.487Z,22.80
2018-06-11T16:38:29.666Z,22.80
2018-06-11T16:40:58.758Z,22.80
2018-06-11T16:43:27.987Z,22.80
2018-06-11T16:45:56.977Z,22.70
2018-06-11T16:48:26.070Z,22.70
2018-06-11T16:50:55.083Z,22.70
2018-06-11T16:53:24.186Z,22.70
2018-06-11T16:55:53.262Z,22.70
2018-06-11T16:58:22.397Z,22.70
2018-06-11T17:00:51.395Z,22.60
2018-06-11T17:03:20.362Z,22.50
2018-06-11T17:05:49.334Z,22.50
2018-06-11T17:08:18.352Z,22.50
2018-06-11T17:10:47.378Z,22.40
2018-06-11T17:13:16.523Z,22.40
2018-06-11T17:15:45.571Z,22.30
2018-06-11T17:18:14.550Z,22.30
2018-06-11T17:20:43.567Z,22.30
2018-06-11T17:23:12.547Z,22.20
2018-06-11T17:25:41.635Z,22.10
2018-06-11T17:28:10.635Z,22.10
2018-06-11T17:30:39.643Z,22.10
2018-06-11T17:33:08.647Z,22.00
2018-06-11T17:35:37.618Z,22.00
2018-06-11T17:38:06.718Z,21.90
2018-06-11T17:40:35.709Z,21.90
2018-06-11T17:43:04.742Z,21.80
2018-06-11T17:45:33.896Z,21.90
2018-06-11T17:48:02.882Z,21.90
2018-06-11T17:50:32.580Z,21.90
2018-06-11T17:53:01.593Z,21.70
2018-06-11T17:55:30.983Z,21.70
2018-06-11T17:57:59.994Z,21.80
2018-06-11T18:00:29.000Z,21.70
2018-06-11T18:02:58.016Z,21.60
2018-06-11T18:05:27.159Z,21.60
2018-06-11T18:07:56.273Z,21.50
2018-06-11T18:10:25.286Z,21.50
2018-06-11T18:12:54.344Z,21.40
2018-06-11T18:15:23.457Z,21.30
2018-06-11T18:17:52.556Z,21.20
2018-06-11T18:20:21.550Z,21.30
2018-06-11T18:22:50.628Z,21.10
2018-06-11T18:25:19.715Z,21.10
2018-06-11T18:27:48.704Z,21.10
2018-06-11T18:30:17.834Z,21.10
2018-06-11T18:32:46.818Z,21.00
2018-06-11T18:35:15.858Z,21.00
2018-06-11T18:37:44.891Z,20.90
2018-06-11T18:40:14.082Z,20.90
2018-06-11T18:42:43.095Z,20.90
2018-06-11T18:45:12.107Z,20.80
2018-06-11T18:47:41.260Z,20.80
2018-06-11T18:50:10.306Z,20.70
2018-06-11T18:52:39.394Z,20.70
2018-06-11T18:55:08.440Z,20.70
2018-06-11T18:57:37.537Z,20.60
2018-06-11T19:00:07.188Z,20.60
2018-06-11T19:02:36.206Z,20.50
2018-06-11T19:05:05.264Z,20.50
2018-06-11T19:07:34.389Z,20.40
2018-06-11T19:10:03.438Z,20.30
2018-06-11T19:12:32.465Z,20.30
2018-06-11T19:15:01.575Z,20.40
2018-06-11T19:17:30.591Z,20.40
2018-06-11T19:19:59.601Z,20.30
2018-06-11T19:22:28.594Z,20.30
2018-06-11T19:24:57.799Z,20.30
2018-06-11T19:27:26.831Z,20.40
2018-06-11T19:29:55.947Z,20.40
2018-06-11T19:32:27.251Z,20.30
2018-06-11T19:34:56.674Z,20.10
2018-06-11T19:37:25.646Z,20.20
2018-06-11T19:39:54.702Z,20.10
2018-06-11T19:42:23.659Z,20.10
2018-06-11T19:44:52.882Z,20.10
2018-06-11T19:47:21.941Z,20.00
2018-06-11T19:49:50.991Z,20.10
2018-06-11T19:52:19.927Z,20.10
2018-06-11T19:54:49.372Z,20.20
2018-06-11T19:57:18.308Z,20.20
2018-06-11T19:59:47.378Z,20.10
2018-06-11T20:02:16.325Z,20.10
2018-06-11T20:04:45.366Z,20.10
2018-06-11T20:07:14.327Z,20.00
2018-06-11T20:09:43.382Z,20.00
2018-06-11T20:12:12.412Z,20.00
2018-06-11T20:14:41.364Z,20.00
2018-06-11T20:17:10.429Z,20.00
2018-06-11T20:19:39.464Z,19.90
2018-06-11T20:22:08.577Z,19.90
2018-06-11T20:24:37.787Z,19.90
2018-06-11T20:27:06.893Z,19.70
2018-06-11T20:29:35.876Z,19.70
2018-06-11T20:32:04.951Z,19.70
2018-06-11T20:34:34.042Z,19.70
2018-06-11T20:37:03.071Z,19.60
2018-06-11T20:39:32.107Z,19.60
2018-06-11T20:42:01.103Z,19.50
2018-06-11T20:44:30.359Z,19.50
2018-06-11T20:47:05.887Z,19.50
2018-06-11T20:49:34.931Z,19.40
2018-06-11T20:52:03.945Z,19.40
2018-06-11T20:54:32.953Z,19.40
2018-06-11T20:57:02.071Z,19.30
2018-06-11T20:59:31.124Z,19.30
2018-06-11T21:02:00.231Z,19.20
2018-06-11T21:04:32.166Z,19.30
2018-06-11T21:07:01.203Z,19.30
2018-06-11T21:09:30.240Z,19.20
2018-06-11T21:12:05.626Z,19.30
2018-06-11T21:14:34.632Z,19.20
2018-06-11T21:17:03.670Z,19.10
2018-06-11T21:19:32.658Z,19.10
2018-06-11T21:22:01.714Z,19.10
2018-06-11T21:24:30.673Z,19.10
2018-06-11T21:26:59.695Z,19.00
2018-06-11T21:29:28.714Z,18.90
2018-06-11T21:31:57.782Z,18.90
2018-06-11T21:34:26.750Z,18.80
2018-06-11T21:36:55.750Z,18.80
2018-06-11T21:39:24.754Z,18.80
2018-06-11T21:41:53.746Z,18.80
2018-06-11T21:44:22.746Z,18.70
2018-06-11T21:46:51.710Z,18.70
2018-06-11T21:49:20.699Z,18.70
2018-06-11T21:51:49.694Z,18.60
2018-06-11T21:54:18.686Z,18.70
2018-06-11T21:56:47.678Z,18.60
2018-06-11T21:59:16.655Z,18.50
2018-06-11T22:01:45.639Z,18.50
2018-06-11T22:04:14.635Z,18.40
2018-06-11T22:06:43.623Z,18.30
2018-06-11T22:09:12.637Z,18.20
2018-06-11T22:11:41.628Z,18.20
2018-06-11T22:14:10.602Z,18.20
2018-06-11T22:16:39.624Z,18.30
2018-06-11T22:19:08.615Z,18.30
2018-06-11T22:21:37.625Z,18.30
2018-06-11T22:24:06.635Z,18.30
2018-06-11T22:26:35.673Z,18.20
2018-06-11T22:29:04.678Z,18.20
2018-06-11T22:31:33.686Z,18.30
2018-06-11T22:34:02.751Z,18.30
2018-06-11T22:36:31.724Z,18.40
2018-06-11T22:39:00.851Z,18.40
2018-06-11T22:41:29.826Z,18.40
2018-06-11T22:43:58.831Z,18.30
2018-06-11T22:46:27.816Z,18.30
2018-06-11T22:48:56.809Z,18.30
2018-06-11T22:51:25.935Z,18.30
2018-06-11T22:53:54.934Z,18.20
2018-06-11T22:56:23.907Z,18.10
2018-06-11T22:58:52.901Z,18.00
2018-06-11T23:01:22.023Z,18.00
2018-06-11T23:03:51.178Z,18.00
2018-06-11T23:06:20.305Z,17.90
2018-06-11T23:08:49.285Z,17.90
2018-06-11T23:11:18.342Z,17.80
2018-06-11T23:13:47.318Z,17.90
2018-06-11T23:16:16.351Z,18.00
2018-06-11T23:18:45.386Z,18.00
2018-06-11T23:21:14.362Z,18.00
2018-06-11T23:23:43.406Z,18.00
2018-06-11T23:26:12.463Z,18.00
2018-06-11T23:28:41.466Z,17.90
2018-06-11T23:31:10.469Z,17.80
2018-06-11T23:33:39.506Z,17.70
2018-06-11T23:36:08.567Z,17.60
2018-06-11T23:38:37.559Z,17.50
2018-06-11T23:41:07.159Z,17.40
2018-06-11T23:51:19.230Z,17.10
2018-06-11T23:53:48.195Z,17.10
2018-06-11T23:56:17.159Z,17.10
2018-06-11T23:58:46.178Z,17.10
